createdAt,value
2022-12-24T00:02:50.557Z,12.33
2022-12-24T00:07:52.035Z,12.35
2022-12-24T00:12:53.378Z,12.40
2022-12-24T00:17:54.714Z,12.40
2022-12-24T00:22:56.059Z,12.40
2022-12-24T00:27:57.411Z,12.42
2022-12-24T00:32:58.764Z,12.42
2022-12-24T00:38:00.131Z,12.41
2022-12-24T00:43:01.444Z,12.48
2022-12-24T00:48:02.834Z,12.47
2022-12-24T00:53:04.183Z,12.55
2022-12-24T00:58:05.556Z,12.55
2022-12-24T01:03:06.957Z,12.55
2022-12-24T01:08:08.620Z,12.54
2022-12-24T01:13:09.950Z,12.60
2022-12-24T01:18:11.321Z,12.55
2022-12-24T01:23:12.757Z,12.57
2022-12-24T01:28:14.113Z,12.57
2022-12-24T01:33:15.443Z,12.62
2022-12-24T01:38:16.756Z,12.65
2022-12-24T01:43:23.295Z,12.61
2022-12-24T01:48:31.373Z,12.63
2022-12-24T01:53:35.027Z,12.59
2022-12-24T01:58:37.821Z,12.64
2022-12-24T02:03:39.775Z,12.67
2022-12-24T02:08:41.215Z,12.65
2022-12-24T02:13:47.872Z,12.68
2022-12-24T02:19:14.039Z,12.67
2022-12-24T02:24:51.733Z,12.74
2022-12-24T02:29:55.811Z,12.72
2022-12-24T02:35:14.385Z,12.68
2022-12-24T02:40:25.396Z,12.59
2022-12-24T02:45:31.000Z,12.57
2022-12-24T02:50:32.369Z,12.57
2022-12-24T02:55:44.623Z,12.55
2022-12-24T03:01:30.872Z,12.52
2022-12-24T03:06:47.523Z,12.50
2022-12-24T03:12:00.848Z,12.50
2022-12-24T03:17:03.544Z,12.50
2022-12-24T03:22:09.095Z,12.47
2022-12-24T03:27:13.143Z,12.42
2022-12-24T03:32:14.459Z,12.44
2022-12-24T03:37:15.766Z,12.42
2022-12-24T03:42:17.121Z,12.43
2022-12-24T03:47:18.442Z,12.38
2022-12-24T03:52:19.760Z,12.44
2022-12-24T03:57:21.137Z,12.45
2022-12-24T04:02:22.580Z,12.43
2022-12-24T04:07:24.030Z,12.44
2022-12-24T04:12:25.517Z,12.44
2022-12-24T04:17:26.866Z,12.39
2022-12-24T04:22:28.260Z,12.40
2022-12-24T04:27:31.110Z,12.40
2022-12-24T04:32:32.457Z,12.37
2022-12-24T04:37:34.170Z,12.44
2022-12-24T04:42:35.557Z,12.41
2022-12-24T04:47:36.934Z,12.41
2022-12-24T04:52:38.257Z,12.44
2022-12-24T04:57:39.587Z,12.44
2022-12-24T05:02:41.160Z,12.45
2022-12-24T05:07:42.569Z,12.44
2022-12-24T05:12:43.923Z,12.37
2022-12-24T05:17:45.248Z,12.10
2022-12-24T05:23:05.024Z,12.00
2022-12-24T05:28:06.344Z,11.90
2022-12-24T05:33:07.656Z,11.86
2022-12-24T05:38:09.027Z,11.79
2022-12-24T05:43:10.361Z,11.76
2022-12-24T05:48:11.762Z,11.76
2022-12-24T05:53:13.092Z,11.80
2022-12-24T05:58:14.594Z,11.83
2022-12-24T06:03:15.945Z,11.86
2022-12-24T06:08:17.272Z,11.84
2022-12-24T06:13:18.647Z,11.97
2022-12-24T06:18:19.975Z,12.04
2022-12-24T06:23:21.592Z,12.03
2022-12-24T06:28:22.977Z,12.04
2022-12-24T06:33:24.471Z,12.10
2022-12-24T06:38:25.981Z,12.07
2022-12-24T06:43:27.312Z,12.01
2022-12-24T06:48:28.776Z,11.89
2022-12-24T06:53:31.396Z,11.68
2022-12-24T06:58:34.105Z,11.64
2022-12-24T07:08:52.004Z,11.53
2022-12-24T07:13:53.458Z,11.56
2022-12-24T07:18:54.800Z,11.62
2022-12-24T07:23:56.128Z,11.70
2022-12-24T07:28:57.922Z,11.69
2022-12-24T07:33:59.400Z,11.64
2022-12-24T07:39:00.715Z,11.65
2022-12-24T07:44:02.036Z,11.74
2022-12-24T07:49:03.402Z,11.77
2022-12-24T07:54:05.104Z,11.81
2022-12-24T07:59:06.506Z,11.80
2022-12-24T08:04:07.940Z,11.79
2022-12-24T08:09:09.380Z,11.75
2022-12-24T08:14:10.731Z,11.75
2022-12-24T08:19:12.051Z,11.82
2022-12-24T08:24:13.406Z,11.84
2022-12-24T08:29:14.755Z,11.94
2022-12-24T08:34:16.083Z,11.99
2022-12-24T08:39:17.409Z,12.10
2022-12-24T08:44:18.816Z,12.19
2022-12-24T08:49:20.147Z,12.19
2022-12-24T08:54:22.476Z,12.22
2022-12-24T08:59:23.926Z,12.20
2022-12-24T09:04:25.273Z,11.86
2022-12-24T09:09:34.137Z,11.71
2022-12-24T09:14:39.030Z,11.64
2022-12-24T09:19:40.874Z,11.51
2022-12-24T09:24:42.219Z,11.51
2022-12-24T09:29:43.560Z,11.47
2022-12-24T09:34:44.908Z,11.47
2022-12-24T09:39:46.253Z,11.49
2022-12-24T09:44:58.950Z,11.57
2022-12-24T09:50:03.669Z,11.57
2022-12-24T09:55:33.478Z,11.67
2022-12-24T10:00:38.012Z,11.70
2022-12-24T10:06:01.143Z,11.75
2022-12-24T10:11:21.360Z,11.78
2022-12-24T10:16:34.286Z,11.84
2022-12-24T10:22:00.919Z,11.88
2022-12-24T10:27:26.717Z,11.99
2022-12-24T10:32:37.439Z,12.06
2022-12-24T10:37:38.858Z,12.22
2022-12-24T10:42:51.055Z,12.34
2022-12-24T10:47:57.109Z,12.35
2022-12-24T10:53:06.771Z,12.48
2022-12-24T10:58:15.601Z,12.54
2022-12-24T11:03:30.185Z,12.62
2022-12-24T11:08:32.274Z,12.67
2022-12-24T11:13:45.901Z,12.74
2022-12-24T11:18:52.022Z,12.86
2022-12-24T11:23:57.285Z,12.97
2022-12-24T11:29:20.632Z,13.08
2022-12-24T11:34:28.419Z,13.14
2022-12-24T11:39:38.401Z,13.20
2022-12-24T11:44:48.615Z,13.26
2022-12-24T11:49:49.957Z,13.34
2022-12-24T11:55:00.708Z,13.47
2022-12-24T12:00:02.043Z,13.54
2022-12-24T12:05:11.666Z,13.65
2022-12-24T12:10:20.611Z,13.73
2022-12-24T12:15:24.813Z,13.67
2022-12-24T12:20:40.965Z,13.81
2022-12-24T12:25:53.271Z,13.94
2022-12-24T12:31:09.068Z,14.00
2022-12-24T12:36:18.299Z,14.05
2022-12-24T12:41:45.809Z,14.04
2022-12-24T12:46:56.059Z,13.98
2022-12-24T12:52:20.490Z,13.96
2022-12-24T12:57:26.379Z,13.95
2022-12-24T13:02:30.901Z,13.79
2022-12-24T13:07:55.056Z,13.74
2022-12-24T13:13:02.446Z,13.65
2022-12-24T13:18:12.569Z,13.67
2022-12-24T13:23:18.726Z,13.65
2022-12-24T13:28:20.391Z,13.69
2022-12-24T13:33:41.947Z,13.79
2022-12-24T13:38:53.095Z,13.79
2022-12-24T13:44:06.656Z,13.77
2022-12-24T13:49:18.954Z,13.92
2022-12-24T13:54:25.576Z,13.89
2022-12-24T13:59:38.879Z,13.87
2022-12-24T14:04:42.225Z,13.89
2022-12-24T14:09:51.113Z,13.95
2022-12-24T14:14:52.484Z,13.90
2022-12-24T14:20:07.066Z,13.80
2022-12-24T14:25:27.331Z,13.68
2022-12-24T14:30:30.461Z,13.63
2022-12-24T14:35:39.888Z,13.53
2022-12-24T14:41:04.022Z,13.47
2022-12-24T14:46:29.598Z,13.40
2022-12-24T14:52:08.781Z,13.30
2022-12-24T14:57:23.346Z,13.29
2022-12-24T15:02:41.971Z,13.23
2022-12-24T15:07:58.626Z,13.13
2022-12-24T15:13:07.275Z,13.09
2022-12-24T15:18:16.849Z,12.98
2022-12-24T15:23:20.655Z,12.95
2022-12-24T15:28:23.510Z,12.96
2022-12-24T15:33:24.834Z,12.85
2022-12-24T15:38:39.804Z,12.81
2022-12-24T15:43:41.649Z,12.79
2022-12-24T15:48:45.104Z,12.76
2022-12-24T15:53:48.282Z,12.70
2022-12-24T15:58:49.646Z,12.72
2022-12-24T16:03:51.017Z,12.61
2022-12-24T16:08:52.523Z,12.54
2022-12-24T16:14:10.845Z,12.45
2022-12-24T16:19:23.661Z,12.34
2022-12-24T16:24:28.531Z,12.23
2022-12-24T16:29:29.884Z,12.20
2022-12-24T16:34:32.560Z,12.02
2022-12-24T16:39:34.815Z,11.92
2022-12-24T16:44:36.890Z,11.80
2022-12-24T16:49:38.965Z,11.80
2022-12-24T16:54:40.308Z,11.87
2022-12-24T16:59:42.053Z,11.89
2022-12-24T17:04:44.083Z,11.80
2022-12-24T17:09:45.601Z,11.81
2022-12-24T17:14:47.182Z,11.73
2022-12-24T17:19:48.491Z,11.69
2022-12-24T17:24:50.332Z,11.67
2022-12-24T17:29:51.736Z,11.57
2022-12-24T17:34:53.377Z,11.53
2022-12-24T17:39:54.789Z,11.55
2022-12-24T17:44:56.132Z,11.54
2022-12-24T17:49:57.645Z,11.49
2022-12-24T17:54:59.039Z,11.37
2022-12-24T18:00:00.693Z,11.30
2022-12-24T18:05:02.035Z,11.27
2022-12-24T18:10:04.629Z,11.17
2022-12-24T18:15:06.666Z,11.10
2022-12-24T18:20:08.965Z,11.04
2022-12-24T18:25:10.495Z,11.02
2022-12-24T18:30:12.458Z,10.99
2022-12-24T18:35:14.449Z,10.96
2022-12-24T18:40:17.949Z,10.96
2022-12-24T18:45:19.391Z,10.90
2022-12-24T18:50:20.755Z,10.86
2022-12-24T18:55:22.107Z,10.78
2022-12-24T19:00:23.510Z,10.69
2022-12-24T19:05:24.893Z,10.63
2022-12-24T19:10:26.315Z,10.64
2022-12-24T19:15:33.811Z,10.72
2022-12-24T19:20:40.638Z,10.86
2022-12-24T19:25:42.075Z,10.93
2022-12-24T19:30:43.479Z,10.97
2022-12-24T19:35:44.801Z,11.10
2022-12-24T19:40:46.142Z,11.16
2022-12-24T19:45:47.603Z,11.29
2022-12-24T19:50:48.997Z,11.31
2022-12-24T19:55:50.362Z,11.39
2022-12-24T20:00:52.141Z,11.42
2022-12-24T20:05:54.528Z,11.43
2022-12-24T20:10:55.901Z,11.32
2022-12-24T20:15:57.242Z,11.38
2022-12-24T20:21:00.019Z,11.39
2022-12-24T20:26:03.593Z,11.44
2022-12-24T20:31:16.704Z,11.42
2022-12-24T20:36:20.630Z,11.42
2022-12-24T20:41:23.789Z,11.40
2022-12-24T20:46:25.462Z,11.40
2022-12-24T20:51:28.533Z,11.39
2022-12-24T20:56:31.042Z,11.40
2022-12-24T21:01:34.201Z,11.41
2022-12-24T21:06:36.297Z,11.37
2022-12-24T21:11:50.136Z,11.34
2022-12-24T21:16:53.950Z,11.27
2022-12-24T21:21:55.446Z,11.29
2022-12-24T21:26:56.860Z,11.26
2022-12-24T21:31:58.199Z,11.31
2022-12-24T21:36:59.570Z,11.35
2022-12-24T21:42:00.943Z,11.37
2022-12-24T21:47:03.082Z,11.43
2022-12-24T21:52:04.557Z,11.51
2022-12-24T21:57:26.529Z,11.62
2022-12-24T22:02:28.301Z,11.70
2022-12-24T22:07:48.494Z,11.72
2022-12-24T22:12:49.827Z,11.75
2022-12-24T22:17:51.148Z,11.80
2022-12-24T22:22:52.503Z,11.83
2022-12-24T22:27:53.907Z,11.90
2022-12-24T22:32:55.236Z,11.95
2022-12-24T22:38:00.153Z,12.01
2022-12-24T22:43:02.011Z,11.96
2022-12-24T22:48:03.444Z,11.94
2022-12-24T22:53:04.834Z,11.97
2022-12-24T22:58:06.205Z,11.92
2022-12-24T23:03:08.099Z,11.93
2022-12-24T23:08:10.683Z,12.02
2022-12-24T23:13:32.162Z,12.04
2022-12-24T23:18:33.842Z,11.94
2022-12-24T23:23:37.266Z,11.95
2022-12-24T23:28:39.412Z,12.02
2022-12-24T23:33:41.312Z,12.00
2022-12-24T23:38:42.736Z,12.09
2022-12-24T23:43:44.473Z,12.09
2022-12-24T23:48:46.586Z,12.02
2022-12-24T23:53:52.999Z,11.93
2022-12-24T23:58:55.192Z,11.79
